Time;durP1;ratioP1;P1;durP2;ratioP2;P2;SDS_P1;SDS_P2;PMS_P1;PMS_P2;Temp;Humidity;BMP_temperature;BMP_pressure;BME280_temperature;BME280_humidity;BME280_pressure;Samples;Min_cycle;Max_cycle;Signal;HPM_P1;HPM_P2
2023/06/11 00:00:23;;;;;;;9.50;7.40;;;;;;;21.90;56.42;101354.78;5010839;28;20026;-84
2023/06/11 00:02:53;;;;;;;11.07;8.10;;;;;;;21.83;56.82;101351.13;5012285;28;20403;-83
2023/06/11 00:05:22;;;;;;;12.10;7.85;;;;;;;21.80;56.88;101354.16;5027594;28;20029;-84
2023/06/11 00:07:51;;;;;;;10.35;7.50;;;;;;;21.73;57.19;101342.47;5009017;28;20037;-84
2023/06/11 00:10:16;;;;;;;9.30;7.45;;;;;;;21.72;57.49;101348.00;5012146;28;20057;-84
2023/06/11 00:12:42;;;;;;;9.48;7.53;;;;;;;21.68;57.48;101344.00;5011362;28;20054;-84
2023/06/11 00:15:09;;;;;;;12.35;8.43;;;;;;;21.61;57.88;101346.53;5010835;28;20072;-85
2023/06/11 00:17:35;;;;;;;9.40;7.85;;;;;;;21.59;57.94;101343.19;5011547;28;20048;-84
2023/06/11 00:20:03;;;;;;;9.10;7.82;;;;;;;21.53;58.57;101350.06;5009083;28;20478;-84
2023/06/11 00:22:31;;;;;;;10.35;7.85;;;;;;;21.52;58.57;101347.56;5010124;28;20040;-85
2023/06/11 00:24:57;;;;;;;9.80;7.55;;;;;;;21.47;58.97;101340.06;5007107;28;20160;-84
2023/06/11 00:27:22;;;;;;;8.82;7.38;;;;;;;21.44;58.88;101344.91;5011515;28;20109;-84
2023/06/11 00:29:48;;;;;;;10.68;7.80;;;;;;;21.41;59.05;101339.91;5010728;28;20032;-84
2023/06/11 00:32:13;;;;;;;9.93;7.78;;;;;;;21.35;59.54;101335.25;5009301;28;20026;-84
2023/06/11 00:34:38;;;;;;;12.20;8.07;;;;;;;21.29;59.84;101336.78;5009169;28;20099;-85
2023/06/11 00:37:04;;;;;;;8.85;7.88;;;;;;;21.27;60.03;101336.94;5010001;28;20450;-85
2023/06/11 00:39:29;;;;;;;8.85;7.90;;;;;;;21.22;60.08;101336.59;5011655;28;20025;-85
2023/06/11 00:41:57;;;;;;;12.38;8.50;;;;;;;21.20;60.28;101341.25;5008017;28;20014;-85
2023/06/11 00:44:23;;;;;;;10.38;8.35;;;;;;;21.15;60.65;101334.75;4995658;28;20021;-85
2023/06/11 00:46:51;;;;;;;11.80;7.72;;;;;;;21.11;60.99;101336.94;5004336;28;20050;-85
2023/06/11 00:49:16;;;;;;;10.18;8.18;;;;;;;21.08;60.86;101336.44;5011115;28;20087;-85
2023/06/11 00:51:44;;;;;;;11.52;8.27;;;;;;;21.07;61.17;101332.94;5011782;28;20371;-84
2023/06/11 00:54:13;;;;;;;8.57;7.72;;;;;;;21.00;61.88;101336.47;5012023;28;20774;-85
2023/06/11 00:56:45;;;;;;;10.07;7.70;;;;;;;20.99;61.54;101343.66;5027498;28;20025;-85
2023/06/11 00:59:13;;;;;;;12.27;8.43;;;;;;;20.96;61.65;101342.16;5022240;28;20037;-85
2023/06/11 01:01:45;;;;;;;10.45;7.90;;;;;;;20.92;62.23;101345.34;5009648;28;20040;-85
2023/06/11 01:04:13;;;;;;;;;;;;;;;21.02;59.96;101335.28;5009634;28;20033;-85
2023/06/11 01:06:46;;;;;;;11.95;8.77;;;;;;;20.81;62.50;101330.47;5011138;28;19913;-85
2023/06/11 01:09:12;;;;;;;11.80;8.70;;;;;;;20.77;62.57;101336.28;5011292;28;20033;-85
2023/06/11 01:11:38;;;;;;;12.50;8.65;;;;;;;20.74;62.81;101347.31;5008189;28;20080;-85
2023/06/11 01:14:05;;;;;;;10.05;8.50;;;;;;;20.69;63.45;101341.66;5009229;28;20032;-86
2023/06/11 01:16:45;;;;;;;10.60;8.32;;;;;;;20.63;63.01;101344.00;5003924;28;20386;-85
2023/06/11 01:19:38;;;;;;;8.93;8.02;;;;;;;20.61;63.00;101343.31;5007431;28;20032;-85
2023/06/11 01:22:13;;;;;;;11.77;9.00;;;;;;;20.52;64.00;101338.97;5008461;28;20037;-87
2023/06/11 01:25:12;;;;;;;12.63;9.48;;;;;;;20.50;63.84;101343.66;5010836;28;20029;-86
2023/06/11 01:27:44;;;;;;;9.65;8.75;;;;;;;20.38;64.67;101333.41;4989397;28;20057;-86
2023/06/11 01:30:17;;;;;;;10.35;8.63;;;;;;;20.33;65.23;101341.91;5016282;28;20037;-86
2023/06/11 01:32:47;;;;;;;12.27;9.13;;;;;;;20.31;65.39;101333.22;5004418;28;20399;-86
2023/06/11 01:35:13;;;;;;;11.52;8.93;;;;;;;20.29;65.39;101341.41;5007536;28;20053;-86
2023/06/11 01:37:44;;;;;;;10.60;9.20;;;;;;;20.28;65.58;101341.59;5008489;28;20026;-86
2023/06/11 01:40:14;;;;;;;11.35;9.60;;;;;;;20.25;65.74;101332.06;5010957;28;20029;-86
2023/06/11 01:42:40;;;;;;;14.18;8.75;;;;;;;20.25;66.00;101336.56;5025744;28;20018;-86
2023/06/11 01:45:06;;;;;;;10.68;9.23;;;;;;;20.19;65.96;101346.06;5010012;28;20037;-86
2023/06/11 01:47:32;;;;;;;10.02;8.93;;;;;;;20.16;66.42;101338.41;5008770;28;20049;-86
2023/06/11 01:49:57;;;;;;;10.65;9.50;;;;;;;20.13;66.74;101340.56;5007246;28;20037;-85
2023/06/11 01:52:23;;;;;;;10.38;9.27;;;;;;;20.12;66.87;101344.22;5011218;28;20049;-86
2023/06/11 01:54:48;;;;;;;12.90;9.55;;;;;;;20.08;67.07;101345.56;5009077;28;20506;-85
2023/06/11 01:57:14;;;;;;;12.27;9.60;;;;;;;20.08;67.15;101342.88;5016665;28;20650;-85
2023/06/11 01:59:39;;;;;;;10.93;9.82;;;;;;;20.02;67.27;101341.72;5008175;28;20040;-85
2023/06/11 02:02:05;;;;;;;12.40;9.73;;;;;;;19.99;67.55;101347.34;5011327;28;20581;-85
2023/06/11 02:04:30;;;;;;;11.32;9.73;;;;;;;19.97;67.43;101350.19;5010184;28;20076;-86
2023/06/11 02:06:55;;;;;;;11.68;10.13;;;;;;;19.95;67.98;101343.31;5007586;28;20374;-85
2023/06/11 02:09:21;;;;;;;11.45;10.07;;;;;;;19.94;67.82;101345.16;5009233;28;20474;-85
2023/06/11 02:11:51;;;;;;;14.52;10.05;;;;;;;19.90;67.97;101356.34;5008630;28;20030;-86
2023/06/11 02:14:16;;;;;;;10.70;9.60;;;;;;;19.87;68.19;101344.16;5008183;28;20026;-85
2023/06/11 02:16:42;;;;;;;12.13;10.55;;;;;;;19.85;68.45;101346.16;5008703;28;20045;-86
2023/06/11 02:19:07;;;;;;;11.45;10.23;;;;;;;19.85;68.54;101356.00;5008030;28;20033;-86
2023/06/11 02:21:32;;;;;;;14.02;10.02;;;;;;;19.83;68.45;101353.47;5009305;28;20042;-86
2023/06/11 02:23:58;;;;;;;11.82;10.52;;;;;;;19.80;68.53;101344.97;5005263;28;20117;-85
2023/06/11 02:26:25;;;;;;;16.17;10.70;;;;;;;19.76;69.07;101351.63;5018424;28;20033;-86
2023/06/11 02:28:52;;;;;;;12.10;10.20;;;;;;;19.71;69.22;101349.44;5012847;28;20092;-85
2023/06/11 02:31:17;;;;;;;10.77;9.68;;;;;;;19.68;69.46;101347.94;5013212;28;20471;-85
2023/06/11 02:33:44;;;;;;;12.30;10.90;;;;;;;19.66;69.60;101347.25;5013048;28;20030;-85
2023/06/11 02:36:10;;;;;;;11.80;10.60;;;;;;;19.61;69.72;101346.91;5013535;28;20044;-85
2023/06/11 02:38:35;;;;;;;11.32;10.32;;;;;;;19.58;69.98;101349.03;5012910;28;20470;-85
2023/06/11 02:41:02;;;;;;;13.10;10.65;;;;;;;19.55;70.17;101352.00;5006636;28;20014;-85
2023/06/11 02:43:27;;;;;;;12.38;11.18;;;;;;;19.55;70.11;101349.34;5011592;28;20076;-85
2023/06/11 02:45:52;;;;;;;13.10;11.02;;;;;;;19.53;70.39;101346.00;5027014;28;20030;-85
2023/06/11 02:48:18;;;;;;;13.43;10.57;;;;;;;19.49;70.28;101345.44;5012501;28;20516;-85
2023/06/11 02:50:43;;;;;;;13.43;10.65;;;;;;;19.47;70.64;101346.59;5012879;28;20494;-85
2023/06/11 02:53:08;;;;;;;12.13;10.70;;;;;;;19.45;70.66;101353.94;5013143;28;20064;-85
2023/06/11 02:55:34;;;;;;;12.30;11.10;;;;;;;19.42;70.92;101345.25;5013159;28;20030;-85
2023/06/11 02:57:59;;;;;;;15.13;11.68;;;;;;;19.39;71.11;101350.06;4993185;28;20034;-85
2023/06/11 03:00:25;;;;;;;11.85;10.65;;;;;;;19.36;71.30;101356.56;4998502;28;20398;-85
2023/06/11 03:02:53;;;;;;;13.63;11.52;;;;;;;19.30;71.65;101361.69;5014123;28;20026;-85
2023/06/11 03:05:18;;;;;;;14.23;11.68;;;;;;;19.23;72.14;101350.81;5012281;28;20033;-85
2023/06/11 03:07:44;;;;;;;14.52;11.50;;;;;;;19.22;72.29;101354.50;5011232;28;20076;-86
2023/06/11 03:10:09;;;;;;;13.88;12.05;;;;;;;19.19;72.37;101349.44;5011480;28;20108;-86
2023/06/11 03:12:36;;;;;;;14.93;12.15;;;;;;;19.16;72.67;101347.09;5009785;28;20498;-87
2023/06/11 03:15:02;;;;;;;17.33;11.80;;;;;;;19.13;72.88;101352.75;5011315;28;20036;-86
2023/06/11 03:17:27;;;;;;;14.25;12.15;;;;;;;19.09;72.91;101354.88;5011505;28;20018;-87
2023/06/11 03:19:53;;;;;;;15.20;12.13;;;;;;;19.06;72.90;101354.38;5011879;28;20025;-87
2023/06/11 03:22:18;;;;;;;15.38;13.10;;;;;;;19.04;73.45;101356.34;5011384;28;20128;-87
2023/06/11 03:24:45;;;;;;;14.48;12.15;;;;;;;19.01;73.50;101354.00;5012218;28;20068;-87
2023/06/11 03:27:11;;;;;;;14.52;12.77;;;;;;;18.99;73.61;101358.66;5027603;28;20593;-87
2023/06/11 03:29:37;;;;;;;14.10;12.30;;;;;;;18.99;73.84;101353.31;5013139;28;20064;-88
2023/06/11 03:32:02;;;;;;;16.63;12.60;;;;;;;18.92;74.02;101358.44;4993197;28;20053;-86
2023/06/11 03:34:28;;;;;;;14.13;12.35;;;;;;;18.88;74.29;101358.91;5012025;28;20026;-85
2023/06/11 03:36:53;;;;;;;18.02;12.68;;;;;;;18.86;74.38;101358.22;5011057;28;20085;-86
2023/06/11 03:39:18;;;;;;;15.38;12.50;;;;;;;18.84;74.71;101357.53;5011810;28;20398;-86
2023/06/11 03:41:45;;;;;;;14.60;12.55;;;;;;;18.83;74.91;101353.22;5010466;28;20098;-86
2023/06/11 03:44:11;;;;;;;13.95;12.48;;;;;;;18.81;75.02;101360.50;5010566;28;20044;-86
2023/06/11 03:46:37;;;;;;;17.10;13.15;;;;;;;18.77;75.33;101368.81;5008771;28;20057;-85
2023/06/11 03:49:03;;;;;;;14.73;13.15;;;;;;;18.72;75.40;101371.09;4992575;28;20026;-85
2023/06/11 03:51:29;;;;;;;15.05;13.07;;;;;;;18.70;75.71;101373.06;4991208;28;20073;-85
2023/06/11 03:53:54;;;;;;;15.15;13.75;;;;;;;18.66;76.09;101360.22;4991381;28;20479;-86
2023/06/11 03:56:19;;;;;;;15.45;13.45;;;;;;;18.66;76.15;101369.03;5011039;28;20475;-86
2023/06/11 03:58:45;;;;;;;17.05;13.57;;;;;;;18.65;76.28;101361.19;5009969;28;20030;-86
2023/06/11 04:01:10;;;;;;;14.75;13.35;;;;;;;18.73;76.28;101370.09;5008166;28;20056;-85
2023/06/11 04:03:35;;;;;;;16.17;13.30;;;;;;;19.18;74.71;101365.59;5001745;28;20431;-85
2023/06/11 04:06:02;;;;;;;14.13;12.68;;;;;;;19.90;71.83;101378.53;5003864;28;20493;-85
2023/06/11 04:08:28;;;;;;;15.40;13.05;;;;;;;20.44;69.17;101373.72;5011043;28;20037;-85
2023/06/11 04:10:53;;;;;;;14.38;12.88;;;;;;;20.82;67.34;101371.44;5010277;28;20024;-86
2023/06/11 04:13:23;;;;;;;16.05;12.80;;;;;;;21.43;64.86;101372.69;5011260;28;20516;-85
2023/06/11 04:15:48;;;;;;;13.93;12.48;;;;;;;22.06;62.68;101367.31;5008774;28;20065;-86
2023/06/11 04:18:13;;;;;;;15.00;13.18;;;;;;;21.99;62.53;101376.16;5011649;28;20018;-85
2023/06/11 04:20:39;;;;;;;15.48;12.93;;;;;;;21.94;62.79;101370.50;5009180;28;20036;-85
2023/06/11 04:23:04;;;;;;;15.73;13.25;;;;;;;21.20;64.26;101373.38;5009164;28;20041;-87
2023/06/11 04:25:31;;;;;;;20.40;13.20;;;;;;;21.02;65.80;101371.91;5011446;28;20018;-86
2023/06/11 04:27:57;;;;;;;14.70;13.25;;;;;;;20.56;67.28;101376.91;5030241;28;20052;-84
2023/06/11 04:30:22;;;;;;;15.10;13.50;;;;;;;20.48;68.13;101368.88;5018928;28;20053;-87
2023/06/11 04:32:54;;;;;;;15.32;13.48;;;;;;;20.23;69.12;101381.31;5009116;28;20065;-86
2023/06/11 04:35:23;;;;;;;16.48;13.10;;;;;;;20.18;69.68;101375.63;5010422;28;20029;-87
2023/06/11 04:37:49;;;;;;;15.95;13.55;;;;;;;20.07;69.65;101376.78;5008621;28;20029;-87
2023/06/11 04:40:14;;;;;;;19.90;14.50;;;;;;;19.92;70.51;101379.22;5005949;28;20027;-86
2023/06/11 04:42:43;;;;;;;15.82;14.32;;;;;;;19.86;70.93;101379.88;5001730;28;20192;-86
2023/06/11 04:45:09;;;;;;;15.68;14.00;;;;;;;19.78;71.80;101379.84;5009307;28;20026;-87
2023/06/11 04:47:36;;;;;;;16.27;14.65;;;;;;;19.67;71.94;101375.63;5010906;28;20075;-87
2023/06/11 04:50:04;;;;;;;15.95;14.55;;;;;;;19.69;72.70;101381.63;5004555;28;20375;-86
2023/06/11 04:52:35;;;;;;;17.05;14.73;;;;;;;19.65;72.38;101377.63;5009604;28;20030;-87
2023/06/11 04:55:01;;;;;;;17.08;15.55;;;;;;;19.65;72.70;101376.78;5003299;28;20096;-87
2023/06/11 04:57:28;;;;;;;17.58;15.75;;;;;;;19.62;73.28;101372.59;5016998;28;20052;-86
2023/06/11 04:59:53;;;;;;;18.52;15.60;;;;;;;19.63;73.38;101381.44;5009374;28;20030;-86
2023/06/11 05:02:19;;;;;;;16.90;15.38;;;;;;;19.61;73.33;101383.41;5007968;28;20501;-86
2023/06/11 05:04:53;;;;;;;19.15;15.88;;;;;;;19.53;73.83;101384.22;5009306;28;20025;-87
2023/06/11 05:07:19;;;;;;;18.42;16.60;;;;;;;19.55;73.83;101384.88;5010553;28;20029;-86
2023/06/11 05:09:48;;;;;;;17.98;16.13;;;;;;;19.65;74.10;101387.47;5006256;28;20026;-86
2023/06/11 05:12:13;;;;;;;18.05;15.98;;;;;;;19.66;73.67;101389.97;5009825;28;20092;-87
2023/06/11 05:14:39;;;;;;;18.35;16.40;;;;;;;19.63;73.95;101384.13;5009540;28;20104;-87
2023/06/11 05:17:04;;;;;;;17.88;16.02;;;;;;;19.71;73.97;101384.16;5009136;28;20028;-86
2023/06/11 05:19:30;;;;;;;17.40;15.60;;;;;;;19.82;73.42;101397.22;5008348;28;20021;-86
2023/06/11 05:21:55;;;;;;;16.90;15.20;;;;;;;19.83;73.38;101384.69;5008918;28;20033;-87
2023/06/11 05:24:21;;;;;;;18.13;14.98;;;;;;;19.92;72.65;101395.25;5009691;28;20380;-86
2023/06/11 05:26:54;;;;;;;16.73;15.13;;;;;;;19.98;72.72;101391.91;5014842;28;20069;-86
2023/06/11 05:29:23;;;;;;;18.20;15.95;;;;;;;20.00;71.85;101384.59;5018664;28;20411;-87
2023/06/11 05:31:49;;;;;;;17.48;15.63;;;;;;;20.12;72.10;101395.00;4995716;28;20022;-86
2023/06/11 05:34:15;;;;;;;16.60;15.00;;;;;;;20.20;70.48;101397.69;5008840;28;20116;-86
2023/06/11 05:36:42;;;;;;;17.13;13.77;;;;;;;20.26;69.90;101391.69;5009486;28;20125;-85
2023/06/11 05:39:07;;;;;;;15.02;13.50;;;;;;;20.36;70.13;101403.06;5008793;28;20624;-85
2023/06/11 05:41:32;;;;;;;16.13;13.70;;;;;;;20.46;69.37;101392.28;5008843;28;20088;-86
2023/06/11 05:43:58;;;;;;;15.30;13.73;;;;;;;20.51;70.15;101396.13;5006491;28;20028;-85
2023/06/11 05:46:28;;;;;;;14.50;13.02;;;;;;;20.58;69.19;101401.66;5007726;28;20134;-86
2023/06/11 05:48:54;;;;;;;14.75;13.25;;;;;;;20.65;68.69;101398.13;4996339;28;20025;-86
2023/06/11 05:51:19;;;;;;;14.13;12.65;;;;;;;20.70;68.48;101384.28;5010119;28;20437;-85
2023/06/11 05:53:46;;;;;;;13.50;12.10;;;;;;;20.77;68.70;101389.78;5008281;28;20535;-85
2023/06/11 05:56:11;;;;;;;12.65;11.35;;;;;;;20.82;68.82;101387.47;5004580;28;20528;-85
2023/06/11 05:58:37;;;;;;;12.50;11.18;;;;;;;20.90;68.54;101384.78;5008694;28;20029;-85
2023/06/11 06:01:04;;;;;;;12.55;11.35;;;;;;;20.96;68.34;101384.13;5007240;28;20022;-85
2023/06/11 06:03:30;;;;;;;12.80;10.38;;;;;;;21.04;66.81;101386.78;5003458;28;20417;-86
2023/06/11 06:05:56;;;;;;;15.90;10.27;;;;;;;21.11;67.06;101387.78;5013172;28;20561;-85
2023/06/11 06:08:23;;;;;;;11.13;9.75;;;;;;;21.18;66.46;101388.75;5011925;28;20109;-85
2023/06/11 06:10:48;;;;;;;13.68;10.13;;;;;;;21.30;66.56;101394.66;5012572;28;20030;-85
2023/06/11 06:13:13;;;;;;;10.10;9.05;;;;;;;21.37;66.08;101392.13;5012329;28;20037;-86
2023/06/11 06:15:41;;;;;;;13.57;9.15;;;;;;;21.50;66.19;101395.94;5012062;28;20081;-86
2023/06/11 06:18:07;;;;;;;10.95;9.40;;;;;;;21.56;65.02;101402.44;5010133;28;20033;-85
2023/06/11 06:20:32;;;;;;;11.10;8.70;;;;;;;21.63;64.51;101398.09;5004436;28;20025;-86
2023/06/11 06:23:01;;;;;;;9.93;8.93;;;;;;;21.70;65.15;101388.38;5012655;28;20029;-86
2023/06/11 06:25:26;;;;;;;9.52;8.63;;;;;;;21.78;64.79;101401.72;5014616;28;20321;-85
2023/06/11 06:27:53;;;;;;;10.10;9.05;;;;;;;21.87;63.99;101403.34;5032906;28;20108;-86
2023/06/11 06:30:18;;;;;;;12.65;8.88;;;;;;;21.95;64.21;101401.66;5024894;28;20025;-84
2023/06/11 06:32:44;;;;;;;9.10;8.20;;;;;;;22.07;63.99;101403.00;5008236;28;20479;-85
2023/06/11 06:35:11;;;;;;;10.27;8.48;;;;;;;22.15;63.16;101409.13;5011367;28;20430;-85
2023/06/11 06:37:36;;;;;;;10.45;8.77;;;;;;;22.22;62.65;101401.22;5011420;28;20100;-84
2023/06/11 06:40:03;;;;;;;9.27;8.38;;;;;;;22.27;62.60;101404.22;5031117;28;20113;-84
2023/06/11 06:42:28;;;;;;;9.27;8.32;;;;;;;22.37;62.68;101409.34;5032914;28;20023;-84
2023/06/11 06:44:54;;;;;;;11.88;8.27;;;;;;;22.47;62.59;101408.13;5016036;28;20530;-84
2023/06/11 06:47:19;;;;;;;9.43;8.07;;;;;;;22.54;62.36;101402.03;5012597;28;20045;-84
2023/06/11 06:49:45;;;;;;;9.20;8.25;;;;;;;22.66;61.81;101411.34;5012437;28;20014;-85
2023/06/11 06:52:11;;;;;;;9.00;7.75;;;;;;;22.73;62.16;101406.91;5007055;28;20170;-84
2023/06/11 06:54:37;;;;;;;9.10;8.05;;;;;;;22.86;60.42;101403.69;4996273;28;20034;-84
2023/06/11 06:57:03;;;;;;;9.35;7.78;;;;;;;22.94;59.99;101398.25;5030184;28;20048;-85
2023/06/11 06:59:28;;;;;;;9.52;7.93;;;;;;;23.01;60.50;101400.03;5012440;28;20033;-85
2023/06/11 07:01:54;;;;;;;8.82;7.88;;;;;;;23.17;59.86;101400.88;5008693;28;20021;-86
2023/06/11 07:04:20;;;;;;;8.77;7.57;;;;;;;23.31;58.69;101389.34;5012243;28;20037;-79
2023/06/11 07:06:45;;;;;;;10.40;7.70;;;;;;;23.50;59.29;101399.53;5015857;28;20017;-86
2023/06/11 07:09:11;;;;;;;8.63;7.75;;;;;;;23.70;57.76;101394.50;5006192;28;20572;-86
2023/06/11 07:11:36;;;;;;;7.95;7.15;;;;;;;23.99;57.03;101393.59;5007067;28;20662;-85
2023/06/11 07:14:01;;;;;;;8.68;7.68;;;;;;;24.25;56.72;101396.63;5005053;28;20034;-85
2023/06/11 07:16:27;;;;;;;9.98;7.95;;;;;;;24.53;55.32;101404.00;5010834;28;20026;-85
2023/06/11 07:18:52;;;;;;;8.50;7.70;;;;;;;24.76;54.10;101401.94;5006148;28;20384;-85
2023/06/11 07:21:19;;;;;;;8.52;7.53;;;;;;;25.06;53.81;101404.50;5011291;28;20248;-85
2023/06/11 07:23:44;;;;;;;9.20;7.45;;;;;;;25.28;52.84;101401.59;5010874;28;20021;-77
2023/06/11 07:26:13;;;;;;;7.90;7.10;;;;;;;25.44;52.12;101389.66;5004735;28;20022;-77
2023/06/11 07:28:40;;;;;;;12.50;7.22;;;;;;;25.70;51.41;101393.59;5001558;28;20425;-77
2023/06/11 07:31:05;;;;;;;12.10;7.22;;;;;;;25.84;50.71;101398.00;5010391;28;20046;-77
2023/06/11 07:33:35;;;;;;;8.40;7.10;;;;;;;26.12;50.08;101398.75;5009054;28;20033;-77
2023/06/11 07:36:01;;;;;;;7.72;7.03;;;;;;;26.28;49.33;101405.66;5008189;28;20462;-77
2023/06/11 07:38:26;;;;;;;9.15;6.78;;;;;;;26.45;48.54;101408.84;5027604;28;20029;-77
2023/06/11 07:40:52;;;;;;;7.68;6.85;;;;;;;26.73;48.50;101404.13;5023220;28;20014;-77
2023/06/11 07:43:17;;;;;;;8.60;6.43;;;;;;;26.91;47.94;101392.72;5008543;28;20026;-77
2023/06/11 07:45:44;;;;;;;9.50;6.97;;;;;;;27.09;47.37;101400.22;5010674;28;20026;-75
2023/06/11 07:48:10;;;;;;;8.27;6.90;;;;;;;27.22;46.79;101396.66;5009700;28;20040;-74
2023/06/11 07:50:37;;;;;;;7.22;6.57;;;;;;;27.40;46.65;101392.28;5009953;28;20021;-74
2023/06/11 07:53:03;;;;;;;7.65;6.68;;;;;;;27.63;46.41;101391.84;5007687;28;20041;-78
2023/06/11 07:55:30;;;;;;;6.80;6.20;;;;;;;27.78;45.96;101399.72;5011178;28;20038;-84
2023/06/11 07:57:56;;;;;;;9.18;6.78;;;;;;;27.94;45.36;101391.09;5007197;28;20030;-82
2023/06/11 08:00:22;;;;;;;9.20;6.70;;;;;;;27.87;44.99;101397.59;5009804;28;20089;-84
2023/06/11 08:02:48;;;;;;;6.80;6.07;;;;;;;28.03;44.74;101399.84;5006803;28;20513;-82
2023/06/11 08:05:17;;;;;;;7.15;6.43;;;;;;;28.32;44.28;101395.72;5009773;28;20029;-83
2023/06/11 08:07:49;;;;;;;9.82;6.50;;;;;;;28.61;43.87;101402.44;5008372;28;20029;-83
2023/06/11 08:10:15;;;;;;;7.80;6.60;;;;;;;28.63;43.69;101395.75;5008408;28;20032;-84
2023/06/11 08:12:42;;;;;;;7.55;6.25;;;;;;;28.78;43.41;101402.72;5008226;28;20025;-84
2023/06/11 08:15:08;;;;;;;7.40;6.68;;;;;;;28.79;42.94;101393.53;5008966;28;20041;-83
2023/06/11 08:17:34;;;;;;;7.38;6.75;;;;;;;28.60;42.71;101400.78;5001740;28;20034;-84
2023/06/11 08:20:00;;;;;;;9.88;6.55;;;;;;;28.68;43.57;101397.81;5009671;28;20026;-84
2023/06/11 08:22:25;;;;;;;7.97;6.97;;;;;;;28.88;43.45;101397.69;5004904;28;20019;-84
2023/06/11 08:24:51;;;;;;;7.10;6.43;;;;;;;29.00;42.36;101388.63;5009067;28;20033;-84
2023/06/11 08:27:16;;;;;;;7.20;6.43;;;;;;;29.07;42.33;101388.56;5007643;28;20018;-83
2023/06/11 08:29:42;;;;;;;7.80;6.28;;;;;;;29.19;41.63;101386.75;5007845;28;20585;-83
2023/06/11 08:32:07;;;;;;;7.05;6.35;;;;;;;29.22;41.52;101380.94;5010834;28;20375;-83
2023/06/11 08:34:33;;;;;;;8.55;6.57;;;;;;;29.41;41.66;101386.34;5005396;28;20021;-83
2023/06/11 08:37:00;;;;;;;6.80;6.10;;;;;;;29.53;41.50;101376.44;5007531;28;20030;-83
2023/06/11 08:39:25;;;;;;;8.15;6.30;;;;;;;29.51;42.55;101370.41;5006827;28;20034;-83
2023/06/11 08:41:51;;;;;;;8.80;6.40;;;;;;;29.53;40.99;101379.16;5007270;28;20029;-84
2023/06/11 08:44:16;;;;;;;7.75;6.35;;;;;;;29.17;41.61;101371.78;5008121;28;20029;-84
2023/06/11 08:46:44;;;;;;;6.72;6.03;;;;;;;29.18;42.14;101379.69;5005927;28;20046;-84
2023/06/11 08:49:31;;;;;;;6.63;6.03;;;;;;;29.39;42.41;101380.34;5004624;28;20022;-84
2023/06/11 08:52:02;;;;;;;7.65;5.90;;;;;;;29.61;41.39;101368.81;5005132;28;20057;-83
2023/06/11 08:54:28;;;;;;;8.75;6.20;;;;;;;29.61;40.79;101373.41;5007034;28;20033;-84
2023/06/11 08:56:53;;;;;;;7.03;5.82;;;;;;;29.50;41.21;101371.47;5006357;28;20053;-83
2023/06/11 08:59:19;;;;;;;6.40;5.40;;;;;;;29.73;40.20;101365.38;5006357;28;20033;-75
2023/06/11 09:01:50;;;;;;;6.95;5.72;;;;;;;29.77;40.86;101372.00;5007055;28;20099;-81
2023/06/11 09:04:16;;;;;;;6.43;5.82;;;;;;;29.69;41.10;101372.31;5002844;28;20111;-82
2023/06/11 09:07:01;;;;;;;8.10;6.40;;;;;;;29.74;41.02;101367.88;5018297;28;20029;-82
2023/06/11 09:09:27;;;;;;;6.80;5.50;;;;;;;29.69;40.65;101364.19;5005304;28;20150;-82
2023/06/11 09:11:53;;;;;;;8.55;5.95;;;;;;;29.81;40.80;101368.59;5003160;28;20029;-82
2023/06/11 09:14:23;;;;;;;5.93;5.32;;;;;;;29.86;39.97;101366.03;5006544;28;20087;-82
2023/06/11 09:16:48;;;;;;;7.90;5.15;;;;;;;30.07;39.74;101372.06;4986418;28;20632;-83
2023/06/11 09:19:16;;;;;;;8.32;5.65;;;;;;;30.15;38.79;101358.19;5002771;28;20141;-82
2023/06/11 09:21:56;;;;;;;6.95;5.28;;;;;;;30.51;39.40;101359.94;4997215;28;20029;-80
2023/06/11 09:24:23;;;;;;;6.07;5.47;;;;;;;30.83;37.99;101363.22;5007249;28;20446;-81
2023/06/11 09:26:53;;;;;;;7.05;5.35;;;;;;;30.80;38.73;101358.22;5019291;28;20021;-80
2023/06/11 09:29:19;;;;;;;8.98;5.20;;;;;;;30.89;37.49;101361.44;5008380;28;20535;-81
2023/06/11 09:31:45;;;;;;;6.30;5.22;;;;;;;30.88;37.97;101354.34;5007422;28;20033;-81
2023/06/11 09:34:16;;;;;;;7.82;5.57;;;;;;;30.89;39.21;101354.13;5009721;28;20574;-81
2023/06/11 09:36:49;;;;;;;6.00;5.40;;;;;;;30.84;37.70;101357.56;5011959;28;20037;-81
2023/06/11 09:39:16;;;;;;;6.22;5.60;;;;;;;30.74;38.82;101345.59;5011767;28;20025;-81
2023/06/11 09:41:54;;;;;;;8.45;5.65;;;;;;;30.90;39.03;101361.22;5006227;28;20084;-81
2023/06/11 09:44:19;;;;;;;11.18;5.50;;;;;;;30.97;37.60;101367.34;5014743;28;20103;-80
2023/06/11 09:46:50;;;;;;;6.10;5.50;;;;;;;30.93;38.32;101366.19;5015135;28;20438;-81
2023/06/11 09:49:16;;;;;;;6.00;5.20;;;;;;;30.92;37.44;101364.53;5018996;28;20033;-82
2023/06/11 09:51:44;;;;;;;6.00;5.40;;;;;;;31.11;37.49;101363.34;5017924;28;20478;-82
2023/06/11 09:54:12;;;;;;;7.18;5.28;;;;;;;31.24;36.12;101366.91;5016913;28;20017;-82
2023/06/11 09:56:38;;;;;;;7.15;5.43;;;;;;;31.23;36.54;101360.66;5021561;28;20033;-82
2023/06/11 09:59:04;;;;;;;6.88;5.30;;;;;;;31.22;35.28;101359.00;5012259;28;20037;-83
2023/06/11 10:01:31;;;;;;;8.18;5.00;;;;;;;31.50;34.31;101347.34;5011593;28;20483;-83
2023/06/11 10:03:58;;;;;;;7.10;5.25;;;;;;;31.57;35.31;101361.66;5030078;28;20413;-82
2023/06/11 10:06:30;;;;;;;7.95;5.18;;;;;;;31.52;35.36;101358.81;5013534;28;20037;-80
2023/06/11 10:09:00;;;;;;;7.15;5.10;;;;;;;31.35;35.57;101357.91;5020975;28;20116;-82
2023/06/11 10:11:28;;;;;;;8.73;4.97;;;;;;;31.20;35.30;101361.09;5017533;28;20030;-82
2023/06/11 10:14:00;;;;;;;5.43;4.75;;;;;;;31.00;34.38;101360.63;5029823;28;20025;-83
2023/06/11 10:16:27;;;;;;;6.25;4.43;;;;;;;31.01;34.38;101362.28;5025034;28;20030;-82
2023/06/11 10:19:07;;;;;;;7.20;4.40;;;;;;;30.99;34.98;101375.28;5023541;28;20026;-81
2023/06/11 10:21:36;;;;;;;5.82;4.68;;;;;;;31.02;34.22;101369.38;5022912;28;20049;-80
2023/06/11 10:24:02;;;;;;;6.65;4.65;;;;;;;31.14;33.73;101357.41;5019369;28;20033;-83
2023/06/11 10:26:35;;;;;;;6.53;4.60;;;;;;;31.17;34.71;101354.25;5018817;28;20022;-81
2023/06/11 10:29:01;;;;;;;7.95;5.00;;;;;;;31.43;34.49;101352.09;5029483;28;20490;-81
2023/06/11 10:31:29;;;;;;;10.02;4.90;;;;;;;31.42;33.55;101348.56;5030271;28;20091;-80
2023/06/11 10:34:04;;;;;;;6.40;4.60;;;;;;;31.29;34.73;101361.59;5028849;28;20028;-83
2023/06/11 10:36:40;;;;;;;6.40;4.70;;;;;;;31.46;32.71;101343.47;5010590;28;20474;-83
2023/06/11 10:39:30;;;;;;;5.78;4.80;;;;;;;31.60;33.68;101350.28;5011432;28;20032;-81
2023/06/11 10:42:00;;;;;;;7.72;4.68;;;;;;;31.80;33.89;101352.63;5008453;28;20068;-82
2023/06/11 10:44:29;;;;;;;5.60;4.40;;;;;;;31.84;32.99;101348.34;5010640;28;20501;-81
2023/06/11 10:46:55;;;;;;;6.72;4.70;;;;;;;31.97;32.98;101349.97;5020336;28;20475;-80
2023/06/11 10:49:27;;;;;;;7.40;4.75;;;;;;;32.07;33.86;101340.09;5016494;28;20079;-79
2023/06/11 10:51:53;;;;;;;6.22;4.80;;;;;;;32.09;32.98;101353.47;5018263;28;20029;-81
2023/06/11 10:54:26;;;;;;;8.00;4.60;;;;;;;31.94;33.14;101348.56;5028957;28;20037;-76
2023/06/11 10:56:53;;;;;;;9.15;4.95;;;;;;;31.72;33.13;101345.69;5017755;28;20038;-82
2023/06/11 10:59:20;;;;;;;4.88;4.47;;;;;;;31.82;33.14;101346.94;5017055;28;20063;-76
2023/06/11 11:01:49;;;;;;;6.18;4.75;;;;;;;31.70;33.44;101350.53;5008997;28;20088;-76
2023/06/11 11:04:15;;;;;;;5.70;4.82;;;;;;;31.56;33.57;101348.28;5023652;28;20079;-76
2023/06/11 11:06:43;;;;;;;5.07;4.50;;;;;;;31.51;33.45;101343.56;5016228;28;20550;-76
2023/06/11 11:09:08;;;;;;;4.80;4.07;;;;;;;31.76;32.04;101341.41;5008422;28;20073;-75
2023/06/11 11:11:34;;;;;;;4.55;4.15;;;;;;;31.88;32.39;101343.25;5012801;28;20633;-75
2023/06/11 11:14:00;;;;;;;5.72;4.47;;;;;;;31.89;32.42;101350.34;5016156;28;20026;-75
2023/06/11 11:16:27;;;;;;;5.85;4.70;;;;;;;32.22;32.46;101347.72;5008873;28;20026;-80
2023/06/11 11:18:52;;;;;;;5.28;4.57;;;;;;;32.51;31.83;101345.00;5007174;28;20395;-79